createdAt,value
2023-04-28T00:01:38.315Z,2.65
2023-04-28T00:04:05.418Z,2.47
2023-04-28T00:06:31.984Z,2.70
2023-04-28T00:08:58.482Z,3.10
2023-04-28T00:11:24.894Z,2.65
2023-04-28T00:13:51.774Z,2.65
2023-04-28T00:16:18.148Z,3.20
2023-04-28T00:18:44.484Z,2.78
2023-04-28T00:21:10.809Z,2.80
2023-04-28T00:23:37.264Z,3.15
2023-04-28T00:26:03.657Z,2.97
2023-04-28T00:28:34.503Z,2.90
2023-04-28T00:31:01.564Z,3.10
2023-04-28T00:33:27.945Z,3.05
2023-04-28T00:36:00.988Z,3.17
2023-04-28T00:38:27.496Z,2.65
2023-04-28T00:40:53.909Z,2.53
2023-04-28T00:43:20.307Z,2.90
2023-04-28T00:45:46.701Z,3.10
2023-04-28T00:48:14.344Z,2.90
2023-04-28T00:50:40.871Z,3.28
2023-04-28T00:53:07.630Z,2.70
2023-04-28T00:55:35.152Z,3.00
2023-04-28T00:58:02.415Z,2.72
2023-04-28T01:00:28.820Z,3.20
2023-04-28T01:02:55.709Z,3.03
2023-04-28T01:05:24.178Z,2.70
2023-04-28T01:07:50.522Z,3.20
2023-04-28T01:10:16.938Z,3.45
2023-04-28T01:12:43.333Z,2.60
2023-04-28T01:15:17.390Z,2.63
2023-04-28T01:17:44.090Z,2.50
2023-04-28T01:20:11.177Z,2.42
2023-04-28T01:22:37.572Z,2.65
2023-04-28T01:25:04.196Z,2.83
2023-04-28T01:27:30.939Z,2.75
2023-04-28T01:29:58.375Z,2.47
2023-04-28T01:32:24.794Z,2.80
2023-04-28T01:34:51.859Z,2.85
2023-04-28T01:37:18.240Z,2.80
2023-04-28T01:39:44.710Z,2.30
2023-04-28T01:42:11.134Z,2.42
2023-04-28T01:44:37.543Z,2.55
2023-04-28T01:47:03.990Z,2.75
2023-04-28T01:49:30.716Z,2.78
2023-04-28T01:51:57.286Z,2.72
2023-04-28T01:54:23.644Z,2.67
2023-04-28T01:56:49.966Z,2.50
2023-04-28T01:59:16.413Z,3.38
2023-04-28T02:01:42.859Z,2.85
2023-04-28T02:04:09.585Z,2.58
2023-04-28T02:06:36.064Z,2.90
2023-04-28T02:09:02.434Z,2.90
2023-04-28T02:11:28.792Z,2.85
2023-04-28T02:13:55.493Z,3.03
2023-04-28T02:16:21.944Z,3.60
2023-04-28T02:18:48.583Z,3.83
2023-04-28T02:21:14.892Z,3.83
2023-04-28T02:23:41.411Z,3.38
2023-04-28T02:26:07.848Z,3.63
2023-04-28T02:28:34.270Z,3.30
2023-04-28T02:31:08.903Z,3.72
2023-04-28T02:33:36.111Z,3.75
2023-04-28T02:36:04.002Z,3.90
2023-04-28T02:38:30.561Z,3.65
2023-04-28T02:41:01.171Z,3.67
2023-04-28T02:43:28.488Z,4.10
2023-04-28T02:45:55.206Z,3.50
2023-04-28T02:48:21.638Z,3.47
2023-04-28T02:50:48.181Z,3.42
2023-04-28T02:53:14.783Z,3.50
2023-04-28T02:55:41.354Z,4.18
2023-04-28T02:58:07.924Z,3.70
2023-04-28T03:00:34.552Z,3.55
2023-04-28T03:03:02.020Z,3.60
2023-04-28T03:05:28.696Z,3.72
2023-04-28T03:07:55.321Z,3.83
2023-04-28T03:10:21.898Z,3.60
2023-04-28T03:12:48.340Z,3.33
2023-04-28T03:15:14.889Z,3.95
2023-04-28T03:17:43.051Z,3.95
2023-04-28T03:20:10.416Z,3.58
2023-04-28T03:22:37.120Z,3.80
2023-04-28T03:25:03.710Z,4.38
2023-04-28T03:27:30.273Z,3.78
2023-04-28T03:29:56.837Z,4.35
2023-04-28T03:32:23.332Z,4.40
2023-04-28T03:34:49.803Z,4.40
2023-04-28T03:37:16.331Z,4.22
2023-04-28T03:39:42.931Z,3.97
2023-04-28T03:42:09.532Z,5.15
2023-04-28T03:44:36.226Z,4.47
2023-04-28T03:47:02.790Z,4.75
2023-04-28T03:49:29.196Z,4.15
2023-04-28T03:51:55.546Z,4.70
2023-04-28T03:54:21.889Z,4.28
2023-04-28T03:56:48.328Z,4.93
2023-04-28T03:59:14.950Z,5.47
2023-04-28T04:01:41.387Z,4.50
2023-04-28T04:04:08.151Z,4.70
2023-04-28T04:06:34.857Z,4.43
2023-04-28T04:09:01.324Z,4.38
2023-04-28T04:11:27.756Z,5.20
2023-04-28T04:13:57.071Z,4.20
2023-04-28T04:16:23.535Z,4.72
2023-04-28T04:18:50.116Z,3.90
2023-04-28T04:21:16.532Z,3.80
2023-04-28T04:23:42.922Z,4.30
2023-04-28T04:26:09.317Z,4.18
2023-04-28T04:28:35.731Z,4.18
2023-04-28T04:31:03.221Z,3.90
2023-04-28T04:33:29.599Z,3.55
2023-04-28T04:35:56.534Z,5.50
2023-04-28T04:38:22.875Z,5.28
2023-04-28T04:40:49.197Z,5.68
2023-04-28T04:43:15.809Z,5.25
2023-04-28T04:45:42.189Z,5.55
2023-04-28T04:48:08.581Z,5.40
2023-04-28T04:50:35.026Z,5.55
2023-04-28T04:53:01.346Z,5.80
2023-04-28T04:55:27.720Z,5.72
2023-04-28T04:57:54.050Z,5.95
2023-04-28T05:00:20.628Z,6.85
2023-04-28T05:02:47.109Z,5.40
2023-04-28T05:07:46.347Z,5.32
2023-04-28T05:10:12.765Z,5.80
2023-04-28T05:12:39.132Z,6.32
2023-04-28T05:15:07.575Z,6.35
2023-04-28T05:17:34.667Z,6.03
2023-04-28T05:20:01.318Z,6.40
2023-04-28T05:22:27.767Z,6.07
2023-04-28T05:24:54.094Z,7.35
2023-04-28T05:27:20.427Z,6.63
2023-04-28T05:29:46.934Z,7.40
2023-04-28T05:32:13.431Z,7.18
2023-04-28T05:34:39.979Z,7.03
2023-04-28T05:37:06.368Z,7.38
2023-04-28T05:39:33.019Z,7.38
2023-04-28T05:41:59.458Z,7.22
2023-04-28T05:44:26.291Z,7.45
2023-04-28T05:46:52.805Z,7.22
2023-04-28T05:49:19.359Z,8.02
2023-04-28T05:51:45.786Z,7.15
2023-04-28T05:54:12.205Z,8.23
2023-04-28T05:56:39.088Z,7.13
2023-04-28T05:59:06.210Z,8.32
2023-04-28T06:01:32.966Z,7.53
2023-04-28T06:03:59.782Z,8.40
2023-04-28T06:06:27.636Z,7.88
2023-04-28T06:08:54.128Z,8.27
2023-04-28T06:11:22.326Z,7.72
2023-04-28T06:13:50.111Z,8.05
2023-04-28T06:16:17.129Z,8.43
2023-04-28T06:18:43.899Z,9.13
2023-04-28T06:21:10.272Z,8.55
2023-04-28T06:23:38.629Z,8.50
2023-04-28T06:26:05.030Z,9.10
2023-04-28T06:28:31.428Z,8.23
2023-04-28T06:30:59.754Z,9.73
2023-04-28T06:33:26.212Z,9.73
2023-04-28T06:35:53.275Z,8.85
2023-04-28T06:38:19.797Z,8.80
2023-04-28T06:40:46.376Z,7.90
2023-04-28T06:43:12.844Z,8.23
2023-04-28T06:45:39.235Z,8.32
2023-04-28T06:48:06.410Z,9.73
2023-04-28T06:50:32.933Z,7.93
2023-04-28T06:52:59.281Z,8.68
2023-04-28T06:55:26.740Z,9.43
2023-04-28T06:57:53.123Z,9.27
2023-04-28T07:00:19.585Z,8.55
2023-04-28T07:02:46.349Z,8.88
2023-04-28T07:05:16.121Z,8.13
2023-04-28T07:07:43.218Z,8.13
2023-04-28T07:10:10.657Z,7.97
2023-04-28T07:12:37.233Z,8.35
2023-04-28T07:15:03.774Z,8.48
2023-04-28T07:17:30.656Z,8.32
2023-04-28T07:19:57.017Z,7.95
2023-04-28T07:22:23.618Z,8.43
2023-04-28T07:24:50.051Z,7.28
2023-04-28T07:27:17.081Z,7.53
2023-04-28T07:29:43.452Z,7.63
2023-04-28T07:32:10.556Z,7.55
2023-04-28T07:34:37.385Z,6.75
2023-04-28T07:37:04.464Z,7.95
2023-04-28T07:39:32.499Z,8.27
2023-04-28T07:41:59.790Z,8.90
2023-04-28T07:44:26.230Z,8.57
2023-04-28T07:46:53.538Z,8.70
2023-04-28T07:49:19.889Z,8.88
2023-04-28T07:51:46.335Z,9.80
2023-04-28T07:54:12.733Z,8.75
2023-04-28T07:56:39.305Z,9.52
2023-04-28T07:59:05.814Z,9.50
2023-04-28T08:01:32.177Z,8.95
2023-04-28T08:03:58.705Z,9.98
2023-04-28T08:06:25.537Z,9.27
2023-04-28T08:08:51.966Z,9.60
2023-04-28T08:11:18.352Z,9.82
2023-04-28T08:13:44.795Z,10.18
2023-04-28T08:16:11.679Z,9.93
2023-04-28T08:18:39.938Z,10.80
2023-04-28T08:21:06.735Z,11.45
2023-04-28T08:23:33.069Z,9.82
2023-04-28T08:25:59.444Z,10.82
2023-04-28T08:28:26.069Z,10.18
2023-04-28T08:30:53.316Z,11.13
2023-04-28T08:33:19.793Z,11.15
2023-04-28T08:35:46.200Z,10.65
2023-04-28T08:38:15.043Z,11.27
2023-04-28T08:40:42.677Z,11.52
2023-04-28T08:43:10.595Z,11.27
2023-04-28T08:45:41.799Z,10.30
2023-04-28T08:48:22.955Z,12.05
2023-04-28T08:50:51.726Z,11.98
2023-04-28T08:53:25.923Z,11.73
2023-04-28T08:55:55.447Z,11.35
2023-04-28T08:58:26.039Z,12.65
2023-04-28T09:00:53.152Z,12.50
2023-04-28T09:03:20.245Z,12.93
2023-04-28T09:05:47.151Z,10.60
2023-04-28T09:08:14.120Z,11.43
2023-04-28T09:10:40.781Z,11.40
2023-04-28T09:13:07.326Z,11.57
2023-04-28T09:15:38.104Z,10.15
2023-04-28T09:18:06.250Z,11.13
2023-04-28T09:20:33.956Z,11.23
2023-04-28T09:23:17.516Z,12.70
2023-04-28T09:25:59.082Z,12.13
2023-04-28T09:28:25.722Z,11.68
2023-04-28T09:30:52.161Z,11.70
2023-04-28T09:33:18.698Z,13.68
2023-04-28T09:35:48.472Z,14.68
2023-04-28T09:38:15.675Z,16.02
2023-04-28T09:40:54.911Z,16.08
2023-04-28T09:43:26.124Z,15.65
2023-04-28T09:45:53.047Z,17.42
2023-04-28T09:48:30.966Z,17.98
2023-04-28T09:50:59.274Z,18.05
2023-04-28T09:53:29.171Z,19.85
2023-04-28T09:55:59.784Z,20.65
2023-04-28T09:58:29.252Z,18.50
2023-04-28T10:00:57.073Z,18.77
2023-04-28T10:03:29.556Z,18.63
2023-04-28T10:05:59.677Z,17.20
2023-04-28T10:08:27.358Z,17.02
2023-04-28T10:10:54.537Z,19.10
2023-04-28T10:13:22.072Z,18.42
2023-04-28T10:15:49.872Z,18.15
2023-04-28T10:18:16.624Z,18.48
2023-04-28T10:20:46.030Z,18.05
2023-04-28T10:23:47.174Z,18.02
2023-04-28T10:26:14.682Z,17.02
2023-04-28T10:28:51.882Z,18.60
2023-04-28T10:31:21.161Z,18.63
2023-04-28T10:33:47.961Z,17.70
2023-04-28T10:36:50.775Z,17.33
2023-04-28T10:39:17.235Z,16.23
2023-04-28T10:41:46.189Z,18.30
2023-04-28T10:44:41.229Z,18.38
2023-04-28T10:47:09.573Z,17.30
2023-04-28T10:49:54.785Z,18.48
2023-04-28T10:52:33.293Z,17.38
2023-04-28T10:55:28.893Z,17.75
2023-04-28T10:58:16.544Z,17.08
2023-04-28T11:00:49.041Z,16.50
2023-04-28T11:03:46.765Z,16.20
2023-04-28T11:06:28.115Z,16.02
2023-04-28T11:09:12.269Z,15.43
2023-04-28T11:11:39.660Z,15.68
2023-04-28T11:14:18.280Z,16.98
2023-04-28T11:17:02.582Z,16.08
2023-04-28T11:19:32.841Z,15.65
2023-04-28T11:22:01.259Z,17.88
2023-04-28T11:24:31.420Z,17.75
2023-04-28T11:26:58.831Z,16.92
2023-04-28T11:29:38.849Z,16.85
2023-04-28T11:32:10.152Z,16.25
2023-04-28T11:34:37.682Z,17.02
2023-04-28T11:37:05.667Z,16.67
2023-04-28T11:39:33.314Z,16.45
2023-04-28T11:42:02.346Z,16.88
2023-04-28T11:44:31.806Z,17.10
2023-04-28T11:47:01.095Z,15.30
2023-04-28T11:49:33.531Z,14.88
2023-04-28T11:52:07.380Z,15.18
2023-04-28T11:54:34.175Z,15.50
2023-04-28T11:57:03.576Z,14.75
2023-04-28T11:59:33.701Z,15.27
2023-04-28T12:02:05.071Z,16.02
2023-04-28T12:04:38.812Z,16.30
2023-04-28T12:07:14.912Z,16.08
2023-04-28T12:09:43.393Z,15.10
2023-04-28T12:12:12.423Z,15.85
2023-04-28T12:14:58.415Z,15.15
2023-04-28T12:17:28.878Z,16.35
2023-04-28T12:19:59.874Z,16.25
2023-04-28T12:22:27.802Z,14.65
2023-04-28T12:25:06.812Z,13.40
2023-04-28T12:27:33.778Z,14.15
2023-04-28T12:30:00.290Z,12.77
2023-04-28T12:32:40.175Z,12.55
2023-04-28T12:35:07.541Z,12.25
2023-04-28T12:37:34.030Z,10.98
2023-04-28T12:40:00.433Z,10.40
2023-04-28T12:42:26.840Z,10.45
2023-04-28T12:44:53.157Z,9.32
2023-04-28T12:47:20.399Z,9.32
2023-04-28T12:49:48.321Z,9.63
2023-04-28T12:52:14.650Z,9.45
2023-04-28T12:54:46.858Z,9.85
2023-04-28T12:57:14.265Z,10.25
2023-04-28T12:59:40.628Z,9.82
2023-04-28T13:02:07.474Z,9.80
2023-04-28T13:04:34.111Z,8.88
2023-04-28T13:07:01.351Z,9.50
2023-04-28T13:09:27.866Z,8.95
2023-04-28T13:11:54.448Z,8.40
2023-04-28T13:14:21.195Z,9.05
2023-04-28T13:16:47.584Z,8.57
2023-04-28T13:19:14.603Z,8.90
2023-04-28T13:21:42.364Z,8.70
2023-04-28T13:24:10.822Z,8.60
2023-04-28T13:26:38.031Z,9.05
2023-04-28T13:29:04.583Z,9.35
2023-04-28T13:31:31.502Z,9.25
2023-04-28T13:33:58.159Z,9.77
2023-04-28T13:36:25.746Z,8.75
2023-04-28T13:38:52.216Z,8.77
2023-04-28T13:41:19.023Z,9.10
2023-04-28T13:43:45.587Z,8.45
2023-04-28T13:46:12.023Z,7.97
2023-04-28T13:48:40.003Z,7.65
2023-04-28T13:51:06.932Z,7.78
2023-04-28T13:53:34.067Z,7.82
2023-04-28T13:56:00.491Z,7.63
2023-04-28T13:58:27.811Z,7.72
2023-04-28T14:00:56.353Z,7.35
2023-04-28T14:03:24.521Z,7.30
2023-04-28T14:05:51.978Z,7.43
2023-04-28T14:08:20.468Z,7.93
2023-04-28T14:10:48.250Z,8.38
2023-04-28T14:13:14.722Z,7.68
2023-04-28T14:15:51.297Z,8.60
2023-04-28T14:18:24.657Z,8.48
2023-04-28T14:20:51.316Z,8.77
2023-04-28T14:23:18.168Z,10.50
2023-04-28T14:25:44.562Z,11.50
2023-04-28T14:28:11.629Z,9.93
2023-04-28T14:30:38.112Z,9.55
2023-04-28T14:33:04.493Z,10.65
2023-04-28T14:35:31.736Z,9.18
2023-04-28T14:37:58.230Z,8.55
2023-04-28T14:40:25.784Z,7.75
2023-04-28T14:42:52.812Z,7.35
2023-04-28T14:45:19.380Z,9.38
2023-04-28T14:47:45.769Z,6.82
2023-04-28T14:50:13.953Z,7.55
2023-04-28T14:52:41.086Z,8.20
2023-04-28T14:55:07.859Z,7.00
2023-04-28T14:57:34.944Z,7.50
2023-04-28T15:00:02.293Z,6.80
2023-04-28T15:02:29.570Z,7.45
2023-04-28T15:04:56.936Z,7.38
2023-04-28T15:07:24.756Z,6.78
2023-04-28T15:09:51.777Z,5.97
2023-04-28T15:12:18.412Z,5.35
2023-04-28T15:14:44.880Z,5.47
2023-04-28T15:17:11.265Z,5.78
2023-04-28T15:19:37.886Z,6.13
2023-04-28T15:22:04.478Z,5.93
2023-04-28T15:24:31.074Z,5.15
2023-04-28T15:26:58.596Z,4.85
2023-04-28T15:29:25.472Z,4.95
2023-04-28T15:31:51.877Z,5.68
2023-04-28T15:34:18.596Z,5.00
2023-04-28T15:36:45.041Z,5.32
2023-04-28T15:39:11.619Z,4.88
2023-04-28T15:41:37.944Z,5.57
2023-04-28T15:44:04.811Z,5.03
2023-04-28T15:46:31.609Z,4.60
2023-04-28T15:48:58.115Z,5.55
2023-04-28T15:51:25.377Z,4.78
2023-04-28T15:53:52.165Z,4.35
2023-04-28T15:56:19.705Z,4.28
2023-04-28T15:58:47.777Z,3.70
2023-04-28T16:01:14.447Z,5.18
2023-04-28T16:03:41.077Z,4.45
2023-04-28T16:06:08.339Z,4.30
2023-04-28T16:08:35.533Z,4.28
2023-04-28T16:11:03.967Z,3.60
2023-04-28T16:13:32.789Z,3.90
2023-04-28T16:15:59.661Z,3.55
2023-04-28T16:18:26.177Z,3.35
2023-04-28T16:20:53.717Z,3.88
2023-04-28T16:23:20.678Z,4.38
2023-04-28T16:25:49.324Z,4.45
2023-04-28T16:28:15.757Z,3.40
2023-04-28T16:30:43.217Z,4.70
2023-04-28T16:33:09.812Z,4.18
2023-04-28T16:35:36.861Z,4.90
2023-04-28T16:38:03.955Z,4.80
2023-04-28T16:40:30.691Z,4.43
2023-04-28T16:42:57.384Z,4.18
2023-04-28T16:45:23.944Z,3.47
2023-04-28T16:47:50.466Z,4.38
2023-04-28T16:50:17.645Z,5.10
2023-04-28T16:52:44.208Z,4.97
2023-04-28T16:55:10.752Z,5.50
2023-04-28T16:57:37.390Z,4.90
2023-04-28T17:00:04.917Z,5.47
2023-04-28T17:02:32.563Z,5.00
2023-04-28T17:04:58.979Z,6.07
2023-04-28T17:07:25.757Z,6.00
2023-04-28T17:09:52.640Z,4.97
2023-04-28T17:12:20.850Z,4.97
2023-04-28T17:14:47.371Z,5.63
2023-04-28T17:17:13.716Z,5.32
2023-04-28T17:19:41.526Z,5.25
2023-04-28T17:22:08.256Z,5.13
2023-04-28T17:24:34.920Z,5.38
2023-04-28T17:27:01.320Z,4.57
2023-04-28T17:29:27.752Z,4.88
2023-04-28T17:31:54.442Z,4.90
2023-04-28T17:34:21.049Z,5.57
2023-04-28T17:36:47.507Z,5.30
2023-04-28T17:39:16.099Z,4.53
2023-04-28T17:41:43.185Z,5.63
2023-04-28T17:44:09.533Z,3.97
2023-04-28T17:46:37.713Z,4.25
2023-04-28T17:49:04.328Z,4.63
2023-04-28T17:51:30.678Z,4.63
2023-04-28T17:53:57.032Z,4.60
2023-04-28T17:56:23.535Z,4.82
2023-04-28T17:58:50.308Z,4.57
2023-04-28T18:01:17.001Z,4.30
2023-04-28T18:03:43.492Z,3.28
2023-04-28T18:06:13.817Z,4.53
2023-04-28T18:08:40.930Z,4.15
2023-04-28T18:11:08.972Z,4.40
2023-04-28T18:13:35.530Z,3.88
2023-04-28T18:16:04.433Z,4.13
2023-04-28T18:18:33.920Z,4.30
2023-04-28T18:21:02.227Z,4.38
2023-04-28T18:23:30.200Z,3.72
2023-04-28T18:25:56.626Z,4.00
2023-04-28T18:28:23.015Z,3.95
2023-04-28T18:30:49.517Z,4.10
2023-04-28T18:33:19.479Z,4.30
2023-04-28T18:35:47.846Z,4.18
2023-04-28T18:38:14.476Z,4.13
2023-04-28T18:40:41.050Z,3.15
2023-04-28T18:43:08.657Z,3.50
2023-04-28T18:45:36.277Z,3.10
2023-04-28T18:48:03.865Z,3.78
2023-04-28T18:50:31.693Z,4.05
2023-04-28T18:52:59.958Z,5.63
2023-04-28T18:55:26.672Z,4.28
2023-04-28T18:57:53.269Z,4.57
2023-04-28T19:00:20.481Z,4.35
2023-04-28T19:02:47.073Z,3.90
2023-04-28T19:05:13.536Z,4.20
2023-04-28T19:07:40.065Z,4.75
2023-04-28T19:10:07.000Z,3.88
2023-04-28T19:12:33.423Z,4.40
2023-04-28T19:15:00.439Z,5.15
2023-04-28T19:17:27.400Z,4.50
2023-04-28T19:19:57.736Z,4.20
2023-04-28T19:22:35.595Z,4.43
2023-04-28T19:25:02.456Z,4.80
2023-04-28T19:27:30.932Z,4.97
2023-04-28T19:29:57.345Z,6.75
2023-04-28T19:32:23.732Z,5.70
2023-04-28T19:34:50.409Z,5.50
2023-04-28T19:37:17.097Z,4.95
2023-04-28T19:39:44.250Z,5.78
2023-04-28T19:42:10.636Z,6.47
2023-04-28T19:44:37.683Z,6.07
2023-04-28T19:47:06.009Z,6.05
2023-04-28T19:49:33.260Z,6.53
2023-04-28T19:52:00.098Z,6.20
2023-04-28T19:54:26.516Z,6.32
2023-04-28T19:56:56.058Z,6.82
2023-04-28T19:59:22.896Z,6.95
2023-04-28T20:01:49.978Z,6.50
2023-04-28T20:04:16.744Z,7.65
2023-04-28T20:06:43.353Z,7.03
2023-04-28T20:09:10.171Z,6.85
2023-04-28T20:11:36.582Z,6.15
2023-04-28T20:14:03.001Z,6.63
2023-04-28T20:16:29.495Z,5.85
2023-04-28T20:18:55.902Z,6.22
2023-04-28T20:21:22.945Z,4.90
2023-04-28T20:23:49.321Z,4.25
2023-04-28T20:26:16.400Z,3.20
2023-04-28T20:28:47.025Z,2.53
2023-04-28T20:31:14.800Z,2.50
2023-04-28T20:33:41.198Z,2.00
2023-04-28T20:36:07.885Z,1.90
2023-04-28T20:38:34.474Z,1.90
2023-04-28T20:41:01.096Z,2.20
2023-04-28T20:43:27.902Z,1.85
2023-04-28T20:45:54.262Z,1.80
2023-04-28T20:48:21.204Z,1.63
2023-04-28T20:50:50.246Z,1.88
2023-04-28T20:53:16.821Z,1.60
2023-04-28T20:55:43.156Z,2.15
2023-04-28T20:58:09.530Z,1.90
2023-04-28T21:00:39.966Z,1.80
2023-04-28T21:03:06.515Z,1.90
2023-04-28T21:05:33.016Z,4.00
2023-04-28T21:07:59.392Z,2.63
2023-04-28T21:10:25.978Z,2.60
2023-04-28T21:12:52.339Z,1.85
2023-04-28T21:15:18.678Z,2.72
2023-04-28T21:17:45.087Z,1.90
2023-04-28T21:20:12.007Z,2.55
2023-04-28T21:22:38.795Z,1.90
2023-04-28T21:25:06.848Z,1.77
2023-04-28T21:27:33.251Z,2.35
2023-04-28T21:29:59.869Z,1.73
2023-04-28T21:32:26.525Z,1.80
2023-04-28T21:34:52.957Z,1.98
2023-04-28T21:37:19.474Z,1.90
2023-04-28T21:39:45.814Z,1.90
2023-04-28T21:42:12.240Z,1.70
2023-04-28T21:44:38.616Z,2.17
2023-04-28T21:47:06.781Z,1.92
2023-04-28T21:49:33.136Z,1.48
2023-04-28T21:51:59.551Z,1.60
2023-04-28T21:54:25.949Z,2.00
2023-04-28T21:56:52.827Z,1.70
2023-04-28T21:59:19.197Z,2.00
2023-04-28T22:01:45.920Z,1.50
2023-04-28T22:04:12.786Z,1.75
2023-04-28T22:06:39.365Z,1.65
2023-04-28T22:09:07.063Z,1.92
2023-04-28T22:11:33.788Z,1.70
2023-04-28T22:14:00.158Z,2.10
2023-04-28T22:16:27.167Z,1.58
2023-04-28T22:18:53.923Z,1.92
2023-04-28T22:21:20.453Z,1.90
2023-04-28T22:23:47.286Z,1.80
2023-04-28T22:26:14.810Z,1.77
2023-04-28T22:28:41.591Z,1.80
2023-04-28T22:31:08.101Z,1.80
2023-04-28T22:33:34.687Z,1.60
2023-04-28T22:36:01.176Z,1.67
2023-04-28T22:38:27.584Z,1.90
2023-04-28T22:40:54.033Z,1.85
2023-04-28T22:43:20.428Z,2.25
2023-04-28T22:45:46.830Z,1.73
2023-04-28T22:48:13.720Z,2.28
2023-04-28T22:50:40.968Z,2.25
2023-04-28T22:53:07.476Z,1.77
2023-04-28T22:55:33.962Z,1.73
2023-04-28T22:58:00.406Z,1.70
2023-04-28T23:00:26.810Z,1.90
2023-04-28T23:02:53.281Z,1.73
2023-04-28T23:05:19.852Z,2.13
2023-04-28T23:07:51.722Z,2.10
2023-04-28T23:10:18.858Z,2.00
2023-04-28T23:12:45.541Z,1.70
2023-04-28T23:15:11.936Z,2.25
2023-04-28T23:17:38.561Z,1.60
2023-04-28T23:20:06.229Z,2.00
2023-04-28T23:22:33.154Z,2.10
2023-04-28T23:24:59.820Z,2.03
2023-04-28T23:27:26.798Z,2.08
2023-04-28T23:29:53.430Z,1.75
2023-04-28T23:32:20.469Z,1.80
2023-04-28T23:34:46.897Z,1.77
2023-04-28T23:37:13.310Z,1.90
2023-04-28T23:39:39.696Z,2.15
2023-04-28T23:42:06.182Z,1.98
2023-04-28T23:44:35.177Z,2.35
2023-04-28T23:47:01.561Z,2.20
2023-04-28T23:49:28.207Z,2.05
2023-04-28T23:51:55.536Z,2.15
2023-04-28T23:54:21.984Z,1.75
2023-04-28T23:56:48.728Z,2.30
2023-04-28T23:59:15.105Z,1.80
